sensor_id;sensor_type;location;lat;lon;timestamp;pressure;altitude;pressure_sealevel;temperature;humidity
69784;BME280;57054;51.978;4.498;2023-04-28T00:00:16;101370.34;;;8.87;66.26
69784;BME280;57054;51.978;4.498;2023-04-28T00:02:41;101366.91;;;8.85;66.23
69784;BME280;57054;51.978;4.498;2023-04-28T00:05:07;101366.09;;;8.83;66.46
69784;BME280;57054;51.978;4.498;2023-04-28T00:07:33;101356.53;;;8.82;66.68
69784;BME280;57054;51.978;4.498;2023-04-28T00:09:58;101350.44;;;8.81;66.47
69784;BME280;57054;51.978;4.498;2023-04-28T00:12:24;101345.22;;;8.81;66.53
69784;BME280;57054;51.978;4.498;2023-04-28T00:14:49;101352.13;;;8.84;66.82
69784;BME280;57054;51.978;4.498;2023-04-28T00:17:15;101346.00;;;8.85;66.72
69784;BME280;57054;51.978;4.498;2023-04-28T00:19:41;101346.91;;;8.84;66.75
69784;BME280;57054;51.978;4.498;2023-04-28T00:22:06;101347.84;;;8.81;66.48
69784;BME280;57054;51.978;4.498;2023-04-28T00:24:32;101333.94;;;8.81;66.70
69784;BME280;57054;51.978;4.498;2023-04-28T00:26:58;101326.97;;;8.80;66.69
69784;BME280;57054;51.978;4.498;2023-04-28T00:29:23;101320.94;;;8.78;66.56
69784;BME280;57054;51.978;4.498;2023-04-28T00:31:49;101321.00;;;8.75;66.64
69784;BME280;57054;51.978;4.498;2023-04-28T00:34:14;101319.31;;;8.74;66.99
69784;BME280;57054;51.978;4.498;2023-04-28T00:36:40;101315.84;;;8.73;66.88
69784;BME280;57054;51.978;4.498;2023-04-28T00:39:05;101313.25;;;8.73;66.97
69784;BME280;57054;51.978;4.498;2023-04-28T00:41:30;101308.91;;;8.72;67.25
69784;BME280;57054;51.978;4.498;2023-04-28T00:43:58;101305.44;;;8.72;67.10
69784;BME280;57054;51.978;4.498;2023-04-28T00:46:26;101297.66;;;8.70;67.43
69784;BME280;57054;51.978;4.498;2023-04-28T00:48:53;101291.56;;;8.70;67.21
69784;BME280;57054;51.978;4.498;2023-04-28T00:51:20;101291.56;;;8.70;67.18
69784;BME280;57054;51.978;4.498;2023-04-28T00:53:47;101289.03;;;8.67;66.99
69784;BME280;57054;51.978;4.498;2023-04-28T00:56:12;101292.53;;;8.65;66.92
69784;BME280;57054;51.978;4.498;2023-04-28T00:58:38;101283.00;;;8.64;67.04
69784;BME280;57054;51.978;4.498;2023-04-28T01:01:04;101276.03;;;8.63;66.91
69784;BME280;57054;51.978;4.498;2023-04-28T01:03:33;101265.63;;;8.62;66.99
69784;BME280;57054;51.978;4.498;2023-04-28T01:05:59;101263.00;;;8.63;67.23
69784;BME280;57054;51.978;4.498;2023-04-28T01:08:29;101263.03;;;8.62;66.96
69784;BME280;57054;51.978;4.498;2023-04-28T01:10:55;101261.31;;;8.61;67.08
69784;BME280;57054;51.978;4.498;2023-04-28T01:13:20;101257.88;;;8.60;67.09
69784;BME280;57054;51.978;4.498;2023-04-28T01:15:45;101240.44;;;8.61;67.28
69784;BME280;57054;51.978;4.498;2023-04-28T01:18:11;101243.91;;;8.61;67.60
69784;BME280;57054;51.978;4.498;2023-04-28T01:20:37;101243.97;;;8.58;67.50
69784;BME280;57054;51.978;4.498;2023-04-28T01:23:03;101248.34;;;8.58;67.67
69784;BME280;57054;51.978;4.498;2023-04-28T01:25:28;101241.34;;;8.58;67.22
69784;BME280;57054;51.978;4.498;2023-04-28T01:27:54;101239.72;;;8.54;67.65
69784;BME280;57054;51.978;4.498;2023-04-28T01:30:19;101242.38;;;8.53;67.54
69784;BME280;57054;51.978;4.498;2023-04-28T01:32:45;101231.97;;;8.51;67.78
69784;BME280;57054;51.978;4.498;2023-04-28T01:35:10;101224.13;;;8.51;67.64
69784;BME280;57054;51.978;4.498;2023-04-28T01:37:36;101223.31;;;8.49;67.85
69784;BME280;57054;51.978;4.498;2023-04-28T01:40:01;101206.84;;;8.47;67.67
69784;BME280;57054;51.978;4.498;2023-04-28T01:42:26;101200.78;;;8.47;67.89
69784;BME280;57054;51.978;4.498;2023-04-28T01:44:52;101206.03;;;8.45;67.92
69784;BME280;57054;51.978;4.498;2023-04-28T01:47:17;101206.91;;;8.44;67.95
69784;BME280;57054;51.978;4.498;2023-04-28T01:49:42;101213.06;;;8.43;68.09
69784;BME280;57054;51.978;4.498;2023-04-28T01:52:08;101207.00;;;8.42;67.91
69784;BME280;57054;51.978;4.498;2023-04-28T01:54:33;101201.75;;;8.42;68.44
69784;BME280;57054;51.978;4.498;2023-04-28T01:56:58;101205.19;;;8.44;68.63
69784;BME280;57054;51.978;4.498;2023-04-28T01:59:24;101205.22;;;8.43;68.82
69784;BME280;57054;51.978;4.498;2023-04-28T02:01:49;101197.41;;;8.43;68.64
69784;BME280;57054;51.978;4.498;2023-04-28T02:04:15;101194.78;;;8.41;68.33
69784;BME280;57054;51.978;4.498;2023-04-28T02:06:40;101195.66;;;8.42;68.70
69784;BME280;57054;51.978;4.498;2023-04-28T02:09:06;101193.06;;;8.42;68.52
69784;BME280;57054;51.978;4.498;2023-04-28T02:11:31;101179.13;;;8.41;68.60
69784;BME280;57054;51.978;4.498;2023-04-28T02:13:56;101182.63;;;8.42;68.91
69784;BME280;57054;51.978;4.498;2023-04-28T02:16:22;101169.56;;;8.42;69.19
69784;BME280;57054;51.978;4.498;2023-04-28T02:18:47;101166.13;;;8.40;69.08
69784;BME280;57054;51.978;4.498;2023-04-28T02:21:12;101167.06;;;8.37;69.14
69784;BME280;57054;51.978;4.498;2023-04-28T02:23:38;101168.81;;;8.37;69.09
69784;BME280;57054;51.978;4.498;2023-04-28T02:26:04;101164.53;;;8.34;69.78
69784;BME280;57054;51.978;4.498;2023-04-28T02:28:30;101160.25;;;8.32;69.08
69784;BME280;57054;51.978;4.498;2023-04-28T02:31:09;101159.38;;;8.31;69.46
69784;BME280;57054;51.978;4.498;2023-04-28T02:33:35;101155.91;;;8.31;69.25
69784;BME280;57054;51.978;4.498;2023-04-28T02:36:02;101153.31;;;8.31;69.24
69784;BME280;57054;51.978;4.498;2023-04-28T02:38:28;101147.28;;;8.29;69.14
69784;BME280;57054;51.978;4.498;2023-04-28T02:41:01;101139.44;;;8.29;69.00
69784;BME280;57054;51.978;4.498;2023-04-28T02:43:29;101146.41;;;8.30;68.96
69784;BME280;57054;51.978;4.498;2023-04-28T02:45:55;101143.78;;;8.30;69.34
69784;BME280;57054;51.978;4.498;2023-04-28T02:48:20;101143.81;;;8.28;69.28
69784;BME280;57054;51.978;4.498;2023-04-28T02:50:46;101144.69;;;8.27;69.53
69784;BME280;57054;51.978;4.498;2023-04-28T02:53:11;101148.22;;;8.26;69.58
69784;BME280;57054;51.978;4.498;2023-04-28T02:55:37;101145.66;;;8.24;69.71
69784;BME280;57054;51.978;4.498;2023-04-28T02:58:02;101147.38;;;8.24;69.56
69784;BME280;57054;51.978;4.498;2023-04-28T03:00:27;101150.88;;;8.24;69.57
69784;BME280;57054;51.978;4.498;2023-04-28T03:02:53;101138.72;;;8.23;69.74
69784;BME280;57054;51.978;4.498;2023-04-28T03:05:18;101131.88;;;8.19;69.73
69784;BME280;57054;51.978;4.498;2023-04-28T03:07:44;101143.16;;;8.20;70.28
69784;BME280;57054;51.978;4.498;2023-04-28T03:10:09;101139.66;;;8.21;70.07
69784;BME280;57054;51.978;4.498;2023-04-28T03:12:35;101137.91;;;8.21;70.27
69784;BME280;57054;51.978;4.498;2023-04-28T03:15:00;101127.50;;;8.20;70.49
69784;BME280;57054;51.978;4.498;2023-04-28T03:17:26;101122.28;;;8.20;70.13
69784;BME280;57054;51.978;4.498;2023-04-28T03:19:51;101125.66;;;8.23;70.45
69784;BME280;57054;51.978;4.498;2023-04-28T03:22:17;101135.22;;;8.24;70.44
69784;BME280;57054;51.978;4.498;2023-04-28T03:24:42;101119.56;;;8.24;70.17
69784;BME280;57054;51.978;4.498;2023-04-28T03:27:07;101106.56;;;8.23;69.94
69784;BME280;57054;51.978;4.498;2023-04-28T03:29:33;101108.25;;;8.24;70.27
69784;BME280;57054;51.978;4.498;2023-04-28T03:31:58;101103.91;;;8.24;70.04
69784;BME280;57054;51.978;4.498;2023-04-28T03:34:23;101104.75;;;8.25;70.42
69784;BME280;57054;51.978;4.498;2023-04-28T03:36:49;101095.19;;;8.24;70.27
69784;BME280;57054;51.978;4.498;2023-04-28T03:39:14;101097.81;;;8.24;70.37
69784;BME280;57054;51.978;4.498;2023-04-28T03:41:40;101097.00;;;8.22;70.58
69784;BME280;57054;51.978;4.498;2023-04-28T03:44:05;101094.34;;;8.23;70.62
69784;BME280;57054;51.978;4.498;2023-04-28T03:46:31;101084.88;;;8.21;71.09
69784;BME280;57054;51.978;4.498;2023-04-28T03:48:56;101077.00;;;8.22;71.07
69784;BME280;57054;51.978;4.498;2023-04-28T03:51:21;101074.38;;;8.22;71.12
69784;BME280;57054;51.978;4.498;2023-04-28T03:53:47;101070.91;;;8.22;71.32
69784;BME280;57054;51.978;4.498;2023-04-28T03:56:12;101065.66;;;8.23;71.67
69784;BME280;57054;51.978;4.498;2023-04-28T03:58:37;101063.03;;;8.23;71.34
69784;BME280;57054;51.978;4.498;2023-04-28T04:01:03;101050.91;;;8.22;71.68
69784;BME280;57054;51.978;4.498;2023-04-28T04:03:29;101065.69;;;8.22;71.84
69784;BME280;57054;51.978;4.498;2023-04-28T04:05:55;101063.97;;;8.22;71.96
69784;BME280;57054;51.978;4.498;2023-04-28T04:08:21;101048.22;;;8.24;71.97
69784;BME280;57054;51.978;4.498;2023-04-28T04:10:46;101047.34;;;8.25;72.09
69784;BME280;57054;51.978;4.498;2023-04-28T04:13:11;101044.75;;;8.25;71.72
69784;BME280;57054;51.978;4.498;2023-04-28T04:15:37;101036.91;;;8.25;71.69
69784;BME280;57054;51.978;4.498;2023-04-28T04:18:02;101033.47;;;8.24;71.94
69784;BME280;57054;51.978;4.498;2023-04-28T04:20:28;101026.50;;;8.23;71.70
69784;BME280;57054;51.978;4.498;2023-04-28T04:22:53;101022.22;;;8.22;71.63
69784;BME280;57054;51.978;4.498;2023-04-28T04:25:18;101035.19;;;8.24;71.52
69784;BME280;57054;51.978;4.498;2023-04-28T04:27:44;101042.13;;;8.25;72.02
69784;BME280;57054;51.978;4.498;2023-04-28T04:30:09;101043.91;;;8.24;72.12
69784;BME280;57054;51.978;4.498;2023-04-28T04:32:35;101049.97;;;8.25;72.15
69784;BME280;57054;51.978;4.498;2023-04-28T04:35:01;101063.00;;;8.25;72.50
69784;BME280;57054;51.978;4.498;2023-04-28T04:37:26;101059.50;;;8.26;72.80
69784;BME280;57054;51.978;4.498;2023-04-28T04:39:51;101064.72;;;8.26;72.73
69784;BME280;57054;51.978;4.498;2023-04-28T04:42:17;101042.09;;;8.26;73.12
69784;BME280;57054;51.978;4.498;2023-04-28T04:44:42;101045.50;;;8.29;73.07
69784;BME280;57054;51.978;4.498;2023-04-28T04:47:07;101042.88;;;8.30;73.43
69784;BME280;57054;51.978;4.498;2023-04-28T04:49:33;101055.00;;;8.31;74.19
69784;BME280;57054;51.978;4.498;2023-04-28T04:51:58;101044.63;;;8.30;74.82
69784;BME280;57054;51.978;4.498;2023-04-28T04:54:23;101042.06;;;8.28;75.66
69784;BME280;57054;51.978;4.498;2023-04-28T04:56:49;101041.25;;;8.26;76.09
69784;BME280;57054;51.978;4.498;2023-04-28T04:59:15;101052.56;;;8.25;76.54
69784;BME280;57054;51.978;4.498;2023-04-28T05:01:40;101043.91;;;8.24;77.61
69784;BME280;57054;51.978;4.498;2023-04-28T05:04:06;101049.16;;;8.23;77.83
69784;BME280;57054;51.978;4.498;2023-04-28T05:06:31;101050.03;;;8.22;78.21
69784;BME280;57054;51.978;4.498;2023-04-28T05:08:57;101045.72;;;8.21;78.99
69784;BME280;57054;51.978;4.498;2023-04-28T05:11:23;101053.56;;;8.21;79.53
69784;BME280;57054;51.978;4.498;2023-04-28T05:13:48;101051.84;;;8.20;79.67
69784;BME280;57054;51.978;4.498;2023-04-28T05:16:14;101058.00;;;8.17;80.16
69784;BME280;57054;51.978;4.498;2023-04-28T05:18:39;101065.88;;;8.16;80.38
69784;BME280;57054;51.978;4.498;2023-04-28T05:21:05;101058.88;;;8.16;80.18
69784;BME280;57054;51.978;4.498;2023-04-28T05:23:31;101060.56;;;8.19;80.25
69784;BME280;57054;51.978;4.498;2023-04-28T05:25:56;101030.03;;;8.22;79.90
69784;BME280;57054;51.978;4.498;2023-04-28T05:28:21;101035.19;;;8.24;80.48
69784;BME280;57054;51.978;4.498;2023-04-28T05:30:47;101034.31;;;8.25;80.21
69784;BME280;57054;51.978;4.498;2023-04-28T05:33:12;101033.41;;;8.26;80.17
69784;BME280;57054;51.978;4.498;2023-04-28T05:35:38;101019.44;;;8.27;80.06
69784;BME280;57054;51.978;4.498;2023-04-28T05:38:03;101005.47;;;8.30;79.77
69784;BME280;57054;51.978;4.498;2023-04-28T05:40:29;101004.53;;;8.32;80.00
69784;BME280;57054;51.978;4.498;2023-04-28T05:42:54;101013.16;;;8.34;79.77
69784;BME280;57054;51.978;4.498;2023-04-28T05:45:20;101009.63;;;8.37;79.66
69784;BME280;57054;51.978;4.498;2023-04-28T05:47:46;101005.22;;;8.39;79.26
69784;BME280;57054;51.978;4.498;2023-04-28T05:50:11;101010.34;;;8.42;79.27
69784;BME280;57054;51.978;4.498;2023-04-28T05:52:37;101012.03;;;8.44;79.97
69784;BME280;57054;51.978;4.498;2023-04-28T05:55:02;101006.78;;;8.46;79.51
69784;BME280;57054;51.978;4.498;2023-04-28T05:57:28;101011.09;;;8.47;79.29
69784;BME280;57054;51.978;4.498;2023-04-28T05:59:53;101014.50;;;8.49;79.57
69784;BME280;57054;51.978;4.498;2023-04-28T06:02:18;101008.41;;;8.50;79.13
69784;BME280;57054;51.978;4.498;2023-04-28T06:04:44;101005.75;;;8.52;79.33
69784;BME280;57054;51.978;4.498;2023-04-28T06:07:09;101002.22;;;8.53;80.15
69784;BME280;57054;51.978;4.498;2023-04-28T06:09:35;101003.09;;;8.53;80.21
69784;BME280;57054;51.978;4.498;2023-04-28T06:12:01;101007.34;;;8.56;79.97
69784;BME280;57054;51.978;4.498;2023-04-28T06:14:27;101009.94;;;8.57;79.93
69784;BME280;57054;51.978;4.498;2023-04-28T06:16:53;101019.44;;;8.58;80.13
69784;BME280;57054;51.978;4.498;2023-04-28T06:19:18;101023.78;;;8.59;80.37
69784;BME280;57054;51.978;4.498;2023-04-28T06:21:44;101019.41;;;8.60;80.08
69784;BME280;57054;51.978;4.498;2023-04-28T06:24:10;101016.75;;;8.61;79.83
69784;BME280;57054;51.978;4.498;2023-04-28T06:26:36;101008.88;;;8.63;80.19
69784;BME280;57054;51.978;4.498;2023-04-28T06:29:01;101006.25;;;8.64;80.82
69784;BME280;57054;51.978;4.498;2023-04-28T06:31:27;101000.97;;;8.66;81.28
69784;BME280;57054;51.978;4.498;2023-04-28T06:33:52;101000.91;;;8.68;81.37
69784;BME280;57054;51.978;4.498;2023-04-28T06:36:18;100993.91;;;8.70;81.56
69784;BME280;57054;51.978;4.498;2023-04-28T06:38:44;100995.56;;;8.72;81.97
69784;BME280;57054;51.978;4.498;2023-04-28T06:41:09;100992.91;;;8.74;82.02
69784;BME280;57054;51.978;4.498;2023-04-28T06:43:35;100995.44;;;8.77;82.60
69784;BME280;57054;51.978;4.498;2023-04-28T06:46:01;100986.69;;;8.78;82.96
69784;BME280;57054;51.978;4.498;2023-04-28T06:48:27;100990.13;;;8.78;82.80
69784;BME280;57054;51.978;4.498;2023-04-28T06:50:52;100994.41;;;8.81;83.04
69784;BME280;57054;51.978;4.498;2023-04-28T06:53:17;100993.50;;;8.82;83.51
69784;BME280;57054;51.978;4.498;2023-04-28T06:55:43;100998.66;;;8.85;84.62
69784;BME280;57054;51.978;4.498;2023-04-28T06:58:08;100998.59;;;8.87;84.95
69784;BME280;57054;51.978;4.498;2023-04-28T07:00:34;100992.47;;;8.88;84.79
69784;BME280;57054;51.978;4.498;2023-04-28T07:02:59;100997.63;;;8.89;84.63
69784;BME280;57054;51.978;4.498;2023-04-28T07:05:25;100990.56;;;8.93;84.76
69784;BME280;57054;51.978;4.498;2023-04-28T07:07:52;100995.75;;;8.94;85.82
69784;BME280;57054;51.978;4.498;2023-04-28T07:10:17;100999.97;;;8.98;86.10
69784;BME280;57054;51.978;4.498;2023-04-28T07:12:43;100998.19;;;9.00;86.22
69784;BME280;57054;51.978;4.498;2023-04-28T07:15:09;100992.88;;;9.02;86.69
69784;BME280;57054;51.978;4.498;2023-04-28T07:17:34;101000.63;;;9.05;86.44
69784;BME280;57054;51.978;4.498;2023-04-28T07:20:00;100994.50;;;9.06;86.83
69784;BME280;57054;51.978;4.498;2023-04-28T07:22:25;100997.88;;;9.10;87.52
69784;BME280;57054;51.978;4.498;2023-04-28T07:24:51;100997.81;;;9.11;88.23
69784;BME280;57054;51.978;4.498;2023-04-28T07:27:17;100991.66;;;9.14;88.35
69784;BME280;57054;51.978;4.498;2023-04-28T07:29:42;100996.78;;;9.17;89.21
69784;BME280;57054;51.978;4.498;2023-04-28T07:32:08;100986.22;;;9.20;90.05
69784;BME280;57054;51.978;4.498;2023-04-28T07:34:35;100986.97;;;9.23;91.00
69784;BME280;57054;51.978;4.498;2023-04-28T07:37:02;100986.03;;;9.26;91.48
69784;BME280;57054;51.978;4.498;2023-04-28T07:39:29;100983.25;;;9.31;92.97
69784;BME280;57054;51.978;4.498;2023-04-28T07:41:55;100985.81;;;9.32;93.12
69784;BME280;57054;51.978;4.498;2023-04-28T07:44:22;100993.53;;;9.37;93.16
69784;BME280;57054;51.978;4.498;2023-04-28T07:46:48;100987.28;;;9.41;94.33
69784;BME280;57054;51.978;4.498;2023-04-28T07:49:13;100987.19;;;9.44;94.97
69784;BME280;57054;51.978;4.498;2023-04-28T07:51:38;100989.66;;;9.47;94.21
69784;BME280;57054;51.978;4.498;2023-04-28T07:54:04;100979.97;;;9.51;94.23
69784;BME280;57054;51.978;4.498;2023-04-28T07:56:29;100985.94;;;9.54;95.34
69784;BME280;57054;51.978;4.498;2023-04-28T07:58:55;100988.47;;;9.57;94.96
69784;BME280;57054;51.978;4.498;2023-04-28T08:01:21;100983.13;;;9.60;95.94
69784;BME280;57054;51.978;4.498;2023-04-28T08:03:46;100990.06;;;9.61;96.14
69784;BME280;57054;51.978;4.498;2023-04-28T08:06:12;100988.25;;;9.64;95.89
69784;BME280;57054;51.978;4.498;2023-04-28T08:08:37;100986.44;;;9.66;96.04
69784;BME280;57054;51.978;4.498;2023-04-28T08:11:03;100986.34;;;9.69;96.99
69784;BME280;57054;51.978;4.498;2023-04-28T08:13:29;100988.81;;;9.73;98.17
69784;BME280;57054;51.978;4.498;2023-04-28T08:15:55;100984.31;;;9.77;99.02
69784;BME280;57054;51.978;4.498;2023-04-28T08:18:21;100989.38;;;9.82;99.17
69784;BME280;57054;51.978;4.498;2023-04-28T08:20:46;100992.78;;;9.84;99.21
69784;BME280;57054;51.978;4.498;2023-04-28T08:23:12;100997.03;;;9.88;100.00
69784;BME280;57054;51.978;4.498;2023-04-28T08:25:37;100996.84;;;9.92;100.00
69784;BME280;57054;51.978;4.498;2023-04-28T08:28:03;100985.41;;;9.95;100.00
69784;BME280;57054;51.978;4.498;2023-04-28T08:30:30;100987.88;;;9.99;100.00
69784;BME280;57054;51.978;4.498;2023-04-28T08:32:56;100983.34;;;10.05;100.00
69784;BME280;57054;51.978;4.498;2023-04-28T08:35:21;100984.97;;;10.07;100.00
69784;BME280;57054;51.978;4.498;2023-04-28T08:37:47;100981.31;;;10.11;100.00
69784;BME280;57054;51.978;4.498;2023-04-28T08:40:14;100975.19;;;10.12;100.00
69784;BME280;57054;51.978;4.498;2023-04-28T08:42:40;100981.16;;;10.16;100.00
69784;BME280;57054;51.978;4.498;2023-04-28T08:45:06;100975.84;;;10.19;100.00
69784;BME280;57054;51.978;4.498;2023-04-28T08:47:37;100977.47;;;10.22;100.00
69784;BME280;57054;51.978;4.498;2023-04-28T08:50:04;100979.88;;;10.28;100.00
69784;BME280;57054;51.978;4.498;2023-04-28T08:52:30;100977.00;;;10.35;100.00
69784;BME280;57054;51.978;4.498;2023-04-28T08:55:00;100981.16;;;10.41;100.00
69784;BME280;57054;51.978;4.498;2023-04-28T09:00:05;100972.03;;;10.51;100.00
69784;BME280;57054;51.978;4.498;2023-04-28T09:02:30;100973.75;;;10.52;100.00
69784;BME280;57054;51.978;4.498;2023-04-28T09:04:56;100970.13;;;10.55;100.00
69784;BME280;57054;51.978;4.498;2023-04-28T09:07:21;100966.56;;;10.57;100.00
69784;BME280;57054;51.978;4.498;2023-04-28T09:09:47;100970.66;;;10.65;100.00
69784;BME280;57054;51.978;4.498;2023-04-28T09:12:12;100970.41;;;10.71;100.00
69784;BME280;57054;51.978;4.498;2023-04-28T09:14:38;100966.75;;;10.75;100.00
69784;BME280;57054;51.978;4.498;2023-04-28T09:17:11;100957.00;;;10.79;100.00
69784;BME280;57054;51.978;4.498;2023-04-28T09:19:40;100959.50;;;10.82;100.00
69784;BME280;57054;51.978;4.498;2023-04-28T09:22:08;100966.41;;;10.84;100.00
69784;BME280;57054;51.978;4.498;2023-04-28T09:27:04;100964.44;;;10.89;100.00
69784;BME280;57054;51.978;4.498;2023-04-28T09:29:32;100959.91;;;10.93;100.00
69784;BME280;57054;51.978;4.498;2023-04-28T09:32:17;100960.59;;;10.98;100.00
69784;BME280;57054;51.978;4.498;2023-04-28T09:34:47;100961.31;;;11.02;100.00
69784;BME280;57054;51.978;4.498;2023-04-28T09:37:18;100958.53;;;11.06;100.00
69784;BME280;57054;51.978;4.498;2023-04-28T09:39:48;100957.41;;;11.12;100.00
69784;BME280;57054;51.978;4.498;2023-04-28T09:42:41;100959.06;;;11.14;100.00
69784;BME280;57054;51.978;4.498;2023-04-28T09:45:08;100963.25;;;11.19;100.00
69784;BME280;57054;51.978;4.498;2023-04-28T09:47:39;100973.50;;;11.25;100.00
69784;BME280;57054;51.978;4.498;2023-04-28T09:50:06;100964.69;;;11.26;100.00
69784;BME280;57054;51.978;4.498;2023-04-28T09:52:34;100961.13;;;11.28;100.00
69784;BME280;57054;51.978;4.498;2023-04-28T09:55:02;100970.59;;;11.31;100.00
69784;BME280;57054;51.978;4.498;2023-04-28T09:57:32;100976.63;;;11.33;100.00
69784;BME280;57054;51.978;4.498;2023-04-28T09:59:59;100971.34;;;11.34;100.00
69784;BME280;57054;51.978;4.498;2023-04-28T10:02:25;100971.28;;;11.36;100.00
69784;BME280;57054;51.978;4.498;2023-04-28T10:04:51;100980.78;;;11.39;100.00
69784;BME280;57054;51.978;4.498;2023-04-28T10:07:18;100975.41;;;11.42;100.00
69784;BME280;57054;51.978;4.498;2023-04-28T10:09:48;100967.47;;;11.43;100.00
69784;BME280;57054;51.978;4.498;2023-04-28T10:12:17;100972.53;;;11.48;100.00
69784;BME280;57054;51.978;4.498;2023-04-28T10:14:44;100974.16;;;11.50;100.00
69784;BME280;57054;51.978;4.498;2023-04-28T10:17:15;100972.38;;;11.51;100.00
69784;BME280;57054;51.978;4.498;2023-04-28T10:19:42;100974.94;;;11.52;100.00
69784;BME280;57054;51.978;4.498;2023-04-28T10:27:45;100979.94;;;11.59;100.00
69784;BME280;57054;51.978;4.498;2023-04-28T10:30:15;100986.84;;;11.61;100.00
69784;BME280;57054;51.978;4.498;2023-04-28T10:32:45;100982.50;;;11.60;100.00
69784;BME280;57054;51.978;4.498;2023-04-28T10:38:13;100985.00;;;11.63;100.00
69784;BME280;57054;51.978;4.498;2023-04-28T10:43:12;100985.72;;;11.67;100.00
69784;BME280;57054;51.978;4.498;2023-04-28T10:48:23;100991.81;;;11.67;100.00
69784;BME280;57054;51.978;4.498;2023-04-28T10:56:26;100991.69;;;11.70;100.00
69784;BME280;57054;51.978;4.498;2023-04-28T10:58:52;100999.56;;;11.70;100.00
69784;BME280;57054;51.978;4.498;2023-04-28T11:03:48;100992.53;;;11.71;100.00
69784;BME280;57054;51.978;4.498;2023-04-28T11:06:43;100994.25;;;11.72;100.00
69784;BME280;57054;51.978;4.498;2023-04-28T11:16:51;100995.94;;;11.73;100.00
69784;BME280;57054;51.978;4.498;2023-04-28T11:19:22;100988.94;;;11.74;100.00
69784;BME280;57054;51.978;4.498;2023-04-28T11:21:49;100995.88;;;11.75;100.00
69784;BME280;57054;51.978;4.498;2023-04-28T11:24:14;100995.03;;;11.74;100.00
69784;BME280;57054;51.978;4.498;2023-04-28T11:26:41;100993.19;;;11.76;100.00
69784;BME280;57054;51.978;4.498;2023-04-28T11:29:08;100994.91;;;11.77;100.00
69784;BME280;57054;51.978;4.498;2023-04-28T11:31:34;100994.91;;;11.77;100.00
69784;BME280;57054;51.978;4.498;2023-04-28T11:34:04;101012.28;;;11.80;100.00
69784;BME280;57054;51.978;4.498;2023-04-28T11:36:32;101010.50;;;11.80;100.00
69784;BME280;57054;51.978;4.498;2023-04-28T11:39:00;101006.13;;;11.81;100.00
69784;BME280;57054;51.978;4.498;2023-04-28T11:41:25;101002.50;;;11.83;100.00
69784;BME280;57054;51.978;4.498;2023-04-28T11:43:51;101005.06;;;11.85;100.00
69784;BME280;57054;51.978;4.498;2023-04-28T11:46:22;101001.38;;;11.89;100.00
69784;BME280;57054;51.978;4.498;2023-04-28T11:48:48;101012.63;;;11.93;100.00
69784;BME280;57054;51.978;4.498;2023-04-28T11:51:46;101010.78;;;11.95;100.00
69784;BME280;57054;51.978;4.498;2023-04-28T11:54:19;101013.34;;;11.96;100.00
69784;BME280;57054;51.978;4.498;2023-04-28T11:56:45;101011.50;;;11.98;100.00
69784;BME280;57054;51.978;4.498;2023-04-28T11:59:11;101007.03;;;12.00;100.00
69784;BME280;57054;51.978;4.498;2023-04-28T12:01:47;101014.78;;;12.03;100.00
69784;BME280;57054;51.978;4.498;2023-04-28T12:04:15;101018.19;;;12.05;100.00
69784;BME280;57054;51.978;4.498;2023-04-28T12:07:11;101013.72;;;12.07;100.00
69784;BME280;57054;51.978;4.498;2023-04-28T12:09:44;101011.88;;;12.09;100.00
69784;BME280;57054;51.978;4.498;2023-04-28T12:12:15;101013.59;;;12.10;100.00
69784;BME280;57054;51.978;4.498;2023-04-28T12:14:55;101016.16;;;12.12;100.00
69784;BME280;57054;51.978;4.498;2023-04-28T12:17:27;101029.16;;;12.15;100.00
69784;BME280;57054;51.978;4.498;2023-04-28T12:19:54;101021.19;;;12.17;100.00
69784;BME280;57054;51.978;4.498;2023-04-28T12:22:19;101021.13;;;12.18;100.00
69784;BME280;57054;51.978;4.498;2023-04-28T12:24:45;101023.69;;;12.20;100.00
69784;BME280;57054;51.978;4.498;2023-04-28T12:27:19;101026.31;;;12.20;100.00
69784;BME280;57054;51.978;4.498;2023-04-28T12:29:49;101032.50;;;12.19;100.00
69784;BME280;57054;51.978;4.498;2023-04-28T12:32:15;101034.19;;;12.20;100.00
69784;BME280;57054;51.978;4.498;2023-04-28T12:34:43;101035.91;;;12.21;100.00
69784;BME280;57054;51.978;4.498;2023-04-28T12:37:09;101033.34;;;12.19;100.00
69784;BME280;57054;51.978;4.498;2023-04-28T12:39:38;101036.81;;;12.20;100.00
69784;BME280;57054;51.978;4.498;2023-04-28T12:42:04;101034.97;;;12.22;100.00
69784;BME280;57054;51.978;4.498;2023-04-28T12:44:37;101039.31;;;12.23;100.00
69784;BME280;57054;51.978;4.498;2023-04-28T12:47:07;101039.31;;;12.23;100.00
69784;BME280;57054;51.978;4.498;2023-04-28T12:49:36;101037.53;;;12.23;100.00
69784;BME280;57054;51.978;4.498;2023-04-28T12:52:02;101037.53;;;12.23;100.00
69784;BME280;57054;51.978;4.498;2023-04-28T12:54:27;101042.78;;;12.23;100.00
69784;BME280;57054;51.978;4.498;2023-04-28T12:56:53;101046.25;;;12.24;100.00
69784;BME280;57054;51.978;4.498;2023-04-28T12:59:19;101046.31;;;12.22;100.00
69784;BME280;57054;51.978;4.498;2023-04-28T13:01:45;101049.81;;;12.23;100.00
69784;BME280;57054;51.978;4.498;2023-04-28T13:04:11;101057.63;;;12.24;100.00
69784;BME280;57054;51.978;4.498;2023-04-28T13:06:37;101054.06;;;12.25;100.00
69784;BME280;57054;51.978;4.498;2023-04-28T13:09:02;101061.88;;;12.27;100.00
69784;BME280;57054;51.978;4.498;2023-04-28T13:11:28;101059.25;;;12.27;100.00
69784;BME280;57054;51.978;4.498;2023-04-28T13:13:53;101056.50;;;12.30;100.00
69784;BME280;57054;51.978;4.498;2023-04-28T13:16:21;101059.13;;;12.30;100.00
69784;BME280;57054;51.978;4.498;2023-04-28T13:18:49;101060.81;;;12.31;100.00
69784;BME280;57054;51.978;4.498;2023-04-28T13:21:14;101062.53;;;12.32;100.00
69784;BME280;57054;51.978;4.498;2023-04-28T13:23:40;101065.16;;;12.32;100.00